sensor_id;sensor_type;location;lat;lon;timestamp;P1;durP1;ratioP1;P2;durP2;ratioP2
78891;SDS011;68368;51.728;5.248;2023-06-01T00:01:59;17.80;;;7.90;;
78891;SDS011;68368;51.728;5.248;2023-06-01T00:04:03;18.70;;;9.50;;
78891;SDS011;68368;51.728;5.248;2023-06-01T00:06:06;12.00;;;6.50;;
78891;SDS011;68368;51.728;5.248;2023-06-01T00:08:19;13.50;;;7.90;;
78891;SDS011;68368;51.728;5.248;2023-06-01T00:10:22;14.70;;;7.80;;
78891;SDS011;68368;51.728;5.248;2023-06-01T00:12:28;15.20;;;9.10;;
78891;SDS011;68368;51.728;5.248;2023-06-01T00:14:31;17.40;;;8.50;;
78891;SDS011;68368;51.728;5.248;2023-06-01T00:16:35;16.70;;;8.00;;
78891;SDS011;68368;51.728;5.248;2023-06-01T00:18:38;14.70;;;8.60;;
78891;SDS011;68368;51.728;5.248;2023-06-01T00:20:42;16.90;;;9.80;;
78891;SDS011;68368;51.728;5.248;2023-06-01T00:22:46;18.10;;;7.80;;
78891;SDS011;68368;51.728;5.248;2023-06-01T00:24:50;16.20;;;8.60;;
78891;SDS011;68368;51.728;5.248;2023-06-01T00:26:53;14.80;;;8.20;;
78891;SDS011;68368;51.728;5.248;2023-06-01T00:29:04;14.00;;;7.30;;
78891;SDS011;68368;51.728;5.248;2023-06-01T00:31:07;18.30;;;8.70;;
78891;SDS011;68368;51.728;5.248;2023-06-01T00:33:12;15.90;;;8.40;;
78891;SDS011;68368;51.728;5.248;2023-06-01T00:35:16;14.90;;;8.90;;
78891;SDS011;68368;51.728;5.248;2023-06-01T00:37:21;14.00;;;7.80;;
78891;SDS011;68368;51.728;5.248;2023-06-01T00:39:25;17.40;;;8.30;;
78891;SDS011;68368;51.728;5.248;2023-06-01T00:41:28;11.80;;;6.60;;
78891;SDS011;68368;51.728;5.248;2023-06-01T00:43:33;12.70;;;7.10;;
78891;SDS011;68368;51.728;5.248;2023-06-01T00:45:37;15.00;;;7.60;;
78891;SDS011;68368;51.728;5.248;2023-06-01T00:47:43;13.40;;;7.60;;
78891;SDS011;68368;51.728;5.248;2023-06-01T00:49:47;12.30;;;6.80;;
78891;SDS011;68368;51.728;5.248;2023-06-01T00:51:51;14.30;;;8.20;;
78891;SDS011;68368;51.728;5.248;2023-06-01T00:53:54;16.60;;;7.10;;
78891;SDS011;68368;51.728;5.248;2023-06-01T00:55:59;14.90;;;7.10;;
78891;SDS011;68368;51.728;5.248;2023-06-01T00:58:03;12.90;;;6.40;;
78891;SDS011;68368;51.728;5.248;2023-06-01T01:00:11;12.30;;;6.40;;
78891;SDS011;68368;51.728;5.248;2023-06-01T01:02:14;12.50;;;6.50;;
78891;SDS011;68368;51.728;5.248;2023-06-01T01:04:20;16.50;;;7.40;;
78891;SDS011;68368;51.728;5.248;2023-06-01T01:06:24;14.40;;;7.90;;
78891;SDS011;68368;51.728;5.248;2023-06-01T01:08:37;16.60;;;7.50;;
78891;SDS011;68368;51.728;5.248;2023-06-01T01:10:50;12.90;;;7.20;;
78891;SDS011;68368;51.728;5.248;2023-06-01T01:13:03;10.80;;;5.90;;
78891;SDS011;68368;51.728;5.248;2023-06-01T01:15:12;13.00;;;7.00;;
78891;SDS011;68368;51.728;5.248;2023-06-01T01:17:21;10.40;;;5.90;;
78891;SDS011;68368;51.728;5.248;2023-06-01T01:19:41;15.40;;;6.60;;
78891;SDS011;68368;51.728;5.248;2023-06-01T01:21:57;12.60;;;6.50;;
78891;SDS011;68368;51.728;5.248;2023-06-01T01:24:15;12.30;;;6.00;;
78891;SDS011;68368;51.728;5.248;2023-06-01T01:26:48;13.10;;;5.60;;
78891;SDS011;68368;51.728;5.248;2023-06-01T01:29:00;10.50;;;5.20;;
78891;SDS011;68368;51.728;5.248;2023-06-01T01:31:08;12.40;;;6.70;;
78891;SDS011;68368;51.728;5.248;2023-06-01T01:35:16;11.20;;;5.80;;
78891;SDS011;68368;51.728;5.248;2023-06-01T01:37:23;13.10;;;6.60;;
78891;SDS011;68368;51.728;5.248;2023-06-01T01:41:31;10.20;;;5.10;;
78891;SDS011;68368;51.728;5.248;2023-06-01T01:43:35;15.20;;;6.10;;
78891;SDS011;68368;51.728;5.248;2023-06-01T01:45:39;14.60;;;6.30;;
78891;SDS011;68368;51.728;5.248;2023-06-01T01:47:49;12.30;;;6.30;;
78891;SDS011;68368;51.728;5.248;2023-06-01T01:49:58;11.60;;;6.10;;
78891;SDS011;68368;51.728;5.248;2023-06-01T01:52:08;14.00;;;6.10;;
78891;SDS011;68368;51.728;5.248;2023-06-01T01:54:15;10.50;;;4.90;;
78891;SDS011;68368;51.728;5.248;2023-06-01T01:56:24;12.20;;;6.50;;
78891;SDS011;68368;51.728;5.248;2023-06-01T01:58:29;10.70;;;6.10;;
78891;SDS011;68368;51.728;5.248;2023-06-01T02:00:33;13.90;;;6.60;;
78891;SDS011;68368;51.728;5.248;2023-06-01T02:02:39;14.00;;;6.60;;
78891;SDS011;68368;51.728;5.248;2023-06-01T02:04:43;8.80;;;5.20;;
78891;SDS011;68368;51.728;5.248;2023-06-01T02:06:46;11.40;;;6.30;;
78891;SDS011;68368;51.728;5.248;2023-06-01T02:08:50;12.10;;;6.00;;
78891;SDS011;68368;51.728;5.248;2023-06-01T02:10:54;10.90;;;4.80;;
78891;SDS011;68368;51.728;5.248;2023-06-01T02:12:57;12.50;;;6.40;;
78891;SDS011;68368;51.728;5.248;2023-06-01T02:15:01;10.90;;;6.20;;
78891;SDS011;68368;51.728;5.248;2023-06-01T02:17:06;14.20;;;6.40;;
78891;SDS011;68368;51.728;5.248;2023-06-01T02:19:09;11.70;;;5.30;;
78891;SDS011;68368;51.728;5.248;2023-06-01T02:21:13;11.40;;;6.10;;
78891;SDS011;68368;51.728;5.248;2023-06-01T02:23:17;12.80;;;6.40;;
78891;SDS011;68368;51.728;5.248;2023-06-01T02:25:23;12.80;;;5.10;;
78891;SDS011;68368;51.728;5.248;2023-06-01T02:27:26;9.90;;;5.20;;
78891;SDS011;68368;51.728;5.248;2023-06-01T02:29:29;9.80;;;5.00;;
78891;SDS011;68368;51.728;5.248;2023-06-01T02:31:33;10.20;;;5.10;;
78891;SDS011;68368;51.728;5.248;2023-06-01T02:33:37;10.70;;;6.00;;
78891;SDS011;68368;51.728;5.248;2023-06-01T02:35:43;9.20;;;4.60;;
78891;SDS011;68368;51.728;5.248;2023-06-01T02:37:47;10.70;;;5.40;;
78891;SDS011;68368;51.728;5.248;2023-06-01T02:39:52;10.20;;;4.70;;
78891;SDS011;68368;51.728;5.248;2023-06-01T02:41:55;15.10;;;6.80;;
78891;SDS011;68368;51.728;5.248;2023-06-01T02:43:58;11.20;;;5.70;;
78891;SDS011;68368;51.728;5.248;2023-06-01T02:46:01;16.80;;;6.30;;
78891;SDS011;68368;51.728;5.248;2023-06-01T02:48:05;12.00;;;6.30;;
78891;SDS011;68368;51.728;5.248;2023-06-01T02:50:09;14.40;;;6.60;;
78891;SDS011;68368;51.728;5.248;2023-06-01T02:52:14;11.10;;;5.00;;
78891;SDS011;68368;51.728;5.248;2023-06-01T02:54:20;9.80;;;5.40;;
78891;SDS011;68368;51.728;5.248;2023-06-01T02:56:24;12.10;;;6.80;;
78891;SDS011;68368;51.728;5.248;2023-06-01T02:58:35;12.40;;;5.80;;
78891;SDS011;68368;51.728;5.248;2023-06-01T03:00:38;7.50;;;4.40;;
78891;SDS011;68368;51.728;5.248;2023-06-01T03:02:42;8.50;;;5.10;;
78891;SDS011;68368;51.728;5.248;2023-06-01T03:04:47;14.10;;;5.80;;
78891;SDS011;68368;51.728;5.248;2023-06-01T03:06:50;9.30;;;5.00;;
78891;SDS011;68368;51.728;5.248;2023-06-01T03:08:54;11.30;;;6.20;;
78891;SDS011;68368;51.728;5.248;2023-06-01T03:10:59;11.20;;;5.40;;
78891;SDS011;68368;51.728;5.248;2023-06-01T03:13:03;8.20;;;5.50;;
78891;SDS011;68368;51.728;5.248;2023-06-01T03:15:07;13.90;;;6.40;;
78891;SDS011;68368;51.728;5.248;2023-06-01T03:17:10;9.20;;;3.90;;
78891;SDS011;68368;51.728;5.248;2023-06-01T03:19:16;12.50;;;5.70;;
78891;SDS011;68368;51.728;5.248;2023-06-01T03:21:20;11.10;;;5.30;;
78891;SDS011;68368;51.728;5.248;2023-06-01T03:23:24;9.50;;;4.60;;
78891;SDS011;68368;51.728;5.248;2023-06-01T03:25:27;11.60;;;5.50;;
78891;SDS011;68368;51.728;5.248;2023-06-01T03:27:30;10.60;;;5.10;;
78891;SDS011;68368;51.728;5.248;2023-06-01T03:29:33;8.40;;;4.90;;
78891;SDS011;68368;51.728;5.248;2023-06-01T03:31:37;11.10;;;5.30;;
78891;SDS011;68368;51.728;5.248;2023-06-01T03:33:42;9.00;;;4.40;;
78891;SDS011;68368;51.728;5.248;2023-06-01T03:35:47;10.30;;;6.20;;
78891;SDS011;68368;51.728;5.248;2023-06-01T03:37:50;11.10;;;5.70;;
78891;SDS011;68368;51.728;5.248;2023-06-01T03:39:54;11.00;;;6.20;;
78891;SDS011;68368;51.728;5.248;2023-06-01T03:42:01;10.50;;;6.00;;
78891;SDS011;68368;51.728;5.248;2023-06-01T03:44:05;9.50;;;6.00;;
78891;SDS011;68368;51.728;5.248;2023-06-01T03:46:08;13.50;;;5.90;;
78891;SDS011;68368;51.728;5.248;2023-06-01T03:48:12;12.50;;;5.50;;
78891;SDS011;68368;51.728;5.248;2023-06-01T03:50:16;11.10;;;5.90;;
78891;SDS011;68368;51.728;5.248;2023-06-01T03:52:19;10.70;;;6.60;;
78891;SDS011;68368;51.728;5.248;2023-06-01T03:54:25;17.60;;;6.50;;
78891;SDS011;68368;51.728;5.248;2023-06-01T03:56:29;11.70;;;6.40;;
78891;SDS011;68368;51.728;5.248;2023-06-01T03:58:33;11.50;;;6.70;;
78891;SDS011;68368;51.728;5.248;2023-06-01T04:00:37;12.00;;;6.30;;
78891;SDS011;68368;51.728;5.248;2023-06-01T04:02:40;8.70;;;6.10;;
78891;SDS011;68368;51.728;5.248;2023-06-01T04:04:43;11.20;;;6.20;;
78891;SDS011;68368;51.728;5.248;2023-06-01T04:06:49;9.30;;;5.80;;
78891;SDS011;68368;51.728;5.248;2023-06-01T04:08:53;11.20;;;6.40;;
78891;SDS011;68368;51.728;5.248;2023-06-01T04:10:56;11.30;;;6.70;;
78891;SDS011;68368;51.728;5.248;2023-06-01T04:12:59;11.90;;;6.40;;
78891;SDS011;68368;51.728;5.248;2023-06-01T04:15:03;9.80;;;5.20;;
78891;SDS011;68368;51.728;5.248;2023-06-01T04:19:24;8.80;;;5.40;;
78891;SDS011;68368;51.728;5.248;2023-06-01T04:21:28;11.80;;;5.90;;
78891;SDS011;68368;51.728;5.248;2023-06-01T04:23:32;12.90;;;6.80;;
78891;SDS011;68368;51.728;5.248;2023-06-01T04:25:35;13.20;;;6.80;;
78891;SDS011;68368;51.728;5.248;2023-06-01T04:27:41;10.50;;;5.90;;
78891;SDS011;68368;51.728;5.248;2023-06-01T04:31:47;12.60;;;6.90;;
78891;SDS011;68368;51.728;5.248;2023-06-01T04:33:51;15.40;;;7.30;;
78891;SDS011;68368;51.728;5.248;2023-06-01T04:35:54;11.60;;;7.60;;
78891;SDS011;68368;51.728;5.248;2023-06-01T04:37:58;10.10;;;6.40;;
78891;SDS011;68368;51.728;5.248;2023-06-01T04:40:03;7.50;;;4.40;;
78891;SDS011;68368;51.728;5.248;2023-06-01T04:42:08;12.10;;;6.40;;
78891;SDS011;68368;51.728;5.248;2023-06-01T04:44:11;9.40;;;5.60;;
78891;SDS011;68368;51.728;5.248;2023-06-01T04:46:18;10.60;;;7.30;;
78891;SDS011;68368;51.728;5.248;2023-06-01T04:48:22;11.20;;;5.60;;
78891;SDS011;68368;51.728;5.248;2023-06-01T04:50:26;15.70;;;6.60;;
78891;SDS011;68368;51.728;5.248;2023-06-01T04:52:30;11.90;;;6.20;;
78891;SDS011;68368;51.728;5.248;2023-06-01T04:54:34;11.80;;;6.60;;
78891;SDS011;68368;51.728;5.248;2023-06-01T04:56:40;11.20;;;6.60;;
78891;SDS011;68368;51.728;5.248;2023-06-01T04:58:43;10.90;;;6.60;;
78891;SDS011;68368;51.728;5.248;2023-06-01T05:00:48;16.80;;;7.40;;
78891;SDS011;68368;51.728;5.248;2023-06-01T05:02:51;17.40;;;7.90;;
78891;SDS011;68368;51.728;5.248;2023-06-01T05:04:54;12.00;;;6.80;;
78891;SDS011;68368;51.728;5.248;2023-06-01T05:06:59;11.10;;;7.20;;
78891;SDS011;68368;51.728;5.248;2023-06-01T05:09:03;13.50;;;7.20;;
78891;SDS011;68368;51.728;5.248;2023-06-01T05:11:06;10.40;;;6.80;;
78891;SDS011;68368;51.728;5.248;2023-06-01T05:13:10;12.00;;;7.20;;
78891;SDS011;68368;51.728;5.248;2023-06-01T05:15:14;13.30;;;7.40;;
78891;SDS011;68368;51.728;5.248;2023-06-01T05:17:17;11.90;;;6.00;;
78891;SDS011;68368;51.728;5.248;2023-06-01T05:19:22;12.80;;;6.60;;
78891;SDS011;68368;51.728;5.248;2023-06-01T05:21:26;12.90;;;6.90;;
78891;SDS011;68368;51.728;5.248;2023-06-01T05:23:29;9.70;;;4.80;;
78891;SDS011;68368;51.728;5.248;2023-06-01T05:25:33;11.00;;;5.70;;
78891;SDS011;68368;51.728;5.248;2023-06-01T05:27:37;10.30;;;4.90;;
78891;SDS011;68368;51.728;5.248;2023-06-01T05:29:40;11.80;;;6.40;;
78891;SDS011;68368;51.728;5.248;2023-06-01T05:31:45;12.30;;;6.50;;
78891;SDS011;68368;51.728;5.248;2023-06-01T05:33:49;10.00;;;6.20;;
78891;SDS011;68368;51.728;5.248;2023-06-01T05:35:54;13.60;;;6.60;;
78891;SDS011;68368;51.728;5.248;2023-06-01T05:37:57;15.40;;;7.10;;
78891;SDS011;68368;51.728;5.248;2023-06-01T05:40:00;8.90;;;5.70;;
78891;SDS011;68368;51.728;5.248;2023-06-01T05:42:06;9.70;;;6.20;;
78891;SDS011;68368;51.728;5.248;2023-06-01T05:44:09;11.10;;;6.40;;
78891;SDS011;68368;51.728;5.248;2023-06-01T05:46:12;10.50;;;6.00;;
78891;SDS011;68368;51.728;5.248;2023-06-01T05:48:16;10.80;;;6.20;;
78891;SDS011;68368;51.728;5.248;2023-06-01T05:50:19;10.30;;;6.30;;
78891;SDS011;68368;51.728;5.248;2023-06-01T05:52:23;12.40;;;7.20;;
78891;SDS011;68368;51.728;5.248;2023-06-01T05:54:26;9.20;;;5.50;;
78891;SDS011;68368;51.728;5.248;2023-06-01T05:56:30;8.50;;;5.60;;
78891;SDS011;68368;51.728;5.248;2023-06-01T05:58:33;9.00;;;6.60;;
78891;SDS011;68368;51.728;5.248;2023-06-01T06:00:38;10.20;;;5.50;;
78891;SDS011;68368;51.728;5.248;2023-06-01T06:02:45;11.70;;;7.20;;
78891;SDS011;68368;51.728;5.248;2023-06-01T06:04:48;11.40;;;6.80;;
78891;SDS011;68368;51.728;5.248;2023-06-01T06:06:53;9.30;;;5.20;;
78891;SDS011;68368;51.728;5.248;2023-06-01T06:08:56;8.70;;;6.00;;
78891;SDS011;68368;51.728;5.248;2023-06-01T06:11:00;11.00;;;6.70;;
78891;SDS011;68368;51.728;5.248;2023-06-01T06:13:03;9.40;;;6.10;;
78891;SDS011;68368;51.728;5.248;2023-06-01T06:15:07;14.10;;;7.70;;
78891;SDS011;68368;51.728;5.248;2023-06-01T06:17:11;10.80;;;7.00;;
78891;SDS011;68368;51.728;5.248;2023-06-01T06:19:15;10.60;;;7.20;;
78891;SDS011;68368;51.728;5.248;2023-06-01T06:21:18;10.00;;;6.60;;
78891;SDS011;68368;51.728;5.248;2023-06-01T06:23:21;12.60;;;7.20;;
78891;SDS011;68368;51.728;5.248;2023-06-01T06:25:27;11.70;;;7.60;;
78891;SDS011;68368;51.728;5.248;2023-06-01T06:27:31;10.50;;;7.20;;
78891;SDS011;68368;51.728;5.248;2023-06-01T06:29:34;11.20;;;7.50;;
78891;SDS011;68368;51.728;5.248;2023-06-01T06:31:38;11.00;;;7.90;;
78891;SDS011;68368;51.728;5.248;2023-06-01T06:33:41;9.50;;;6.20;;
78891;SDS011;68368;51.728;5.248;2023-06-01T06:35:44;9.90;;;6.10;;
78891;SDS011;68368;51.728;5.248;2023-06-01T06:37:50;14.70;;;6.20;;
78891;SDS011;68368;51.728;5.248;2023-06-01T06:39:53;12.90;;;6.60;;
78891;SDS011;68368;51.728;5.248;2023-06-01T06:41:57;8.30;;;6.00;;
78891;SDS011;68368;51.728;5.248;2023-06-01T06:44:01;13.00;;;6.10;;
78891;SDS011;68368;51.728;5.248;2023-06-01T06:46:05;10.60;;;6.10;;
78891;SDS011;68368;51.728;5.248;2023-06-01T06:48:09;9.20;;;5.60;;
78891;SDS011;68368;51.728;5.248;2023-06-01T06:50:14;8.40;;;5.50;;
78891;SDS011;68368;51.728;5.248;2023-06-01T06:52:19;11.80;;;5.90;;
78891;SDS011;68368;51.728;5.248;2023-06-01T06:54:22;12.90;;;6.50;;
78891;SDS011;68368;51.728;5.248;2023-06-01T06:56:27;12.10;;;6.70;;
78891;SDS011;68368;51.728;5.248;2023-06-01T06:58:30;9.10;;;5.10;;
78891;SDS011;68368;51.728;5.248;2023-06-01T07:00:34;11.10;;;6.10;;
78891;SDS011;68368;51.728;5.248;2023-06-01T07:02:38;13.10;;;6.60;;
78891;SDS011;68368;51.728;5.248;2023-06-01T07:04:42;11.40;;;5.80;;
78891;SDS011;68368;51.728;5.248;2023-06-01T07:06:48;8.80;;;5.60;;
78891;SDS011;68368;51.728;5.248;2023-06-01T07:08:54;9.50;;;5.10;;
78891;SDS011;68368;51.728;5.248;2023-06-01T07:10:59;14.40;;;6.40;;
78891;SDS011;68368;51.728;5.248;2023-06-01T07:13:03;9.00;;;5.70;;
78891;SDS011;68368;51.728;5.248;2023-06-01T07:15:07;12.00;;;5.80;;
78891;SDS011;68368;51.728;5.248;2023-06-01T07:17:11;9.60;;;5.60;;
78891;SDS011;68368;51.728;5.248;2023-06-01T07:19:14;9.00;;;6.40;;
78891;SDS011;68368;51.728;5.248;2023-06-01T07:21:18;11.10;;;6.30;;
78891;SDS011;68368;51.728;5.248;2023-06-01T07:23:21;10.20;;;6.40;;
78891;SDS011;68368;51.728;5.248;2023-06-01T07:25:25;9.20;;;5.30;;
78891;SDS011;68368;51.728;5.248;2023-06-01T07:27:28;9.40;;;5.60;;
78891;SDS011;68368;51.728;5.248;2023-06-01T07:29:31;7.60;;;5.10;;
78891;SDS011;68368;51.728;5.248;2023-06-01T07:31:35;8.40;;;5.20;;
78891;SDS011;68368;51.728;5.248;2023-06-01T07:33:40;8.80;;;5.80;;
78891;SDS011;68368;51.728;5.248;2023-06-01T07:35:43;7.00;;;5.10;;
78891;SDS011;68368;51.728;5.248;2023-06-01T07:37:46;8.00;;;5.60;;
78891;SDS011;68368;51.728;5.248;2023-06-01T07:39:50;9.60;;;5.40;;
78891;SDS011;68368;51.728;5.248;2023-06-01T07:41:54;8.30;;;5.50;;
78891;SDS011;68368;51.728;5.248;2023-06-01T07:43:57;6.60;;;4.30;;
78891;SDS011;68368;51.728;5.248;2023-06-01T07:46:01;6.10;;;4.40;;
78891;SDS011;68368;51.728;5.248;2023-06-01T07:48:04;8.50;;;5.20;;
78891;SDS011;68368;51.728;5.248;2023-06-01T07:50:09;8.10;;;5.50;;
78891;SDS011;68368;51.728;5.248;2023-06-01T07:54:15;8.00;;;5.40;;
78891;SDS011;68368;51.728;5.248;2023-06-01T07:56:19;7.80;;;5.20;;
78891;SDS011;68368;51.728;5.248;2023-06-01T07:58:23;10.30;;;5.50;;
78891;SDS011;68368;51.728;5.248;2023-06-01T08:00:26;7.00;;;4.80;;
78891;SDS011;68368;51.728;5.248;2023-06-01T08:02:29;9.30;;;5.90;;
78891;SDS011;68368;51.728;5.248;2023-06-01T08:04:33;8.10;;;5.00;;
78891;SDS011;68368;51.728;5.248;2023-06-01T08:06:36;8.50;;;5.70;;
78891;SDS011;68368;51.728;5.248;2023-06-01T08:08:39;12.00;;;5.60;;
78891;SDS011;68368;51.728;5.248;2023-06-01T08:10:42;10.30;;;5.10;;
78891;SDS011;68368;51.728;5.248;2023-06-01T08:12:46;8.70;;;5.50;;
78891;SDS011;68368;51.728;5.248;2023-06-01T08:14:50;10.10;;;5.60;;
78891;SDS011;68368;51.728;5.248;2023-06-01T08:16:55;9.30;;;5.60;;
78891;SDS011;68368;51.728;5.248;2023-06-01T08:18:58;8.10;;;5.50;;
78891;SDS011;68368;51.728;5.248;2023-06-01T08:21:04;8.00;;;5.20;;
78891;SDS011;68368;51.728;5.248;2023-06-01T08:23:07;8.70;;;5.10;;
78891;SDS011;68368;51.728;5.248;2023-06-01T08:25:11;11.30;;;5.50;;
78891;SDS011;68368;51.728;5.248;2023-06-01T08:27:18;9.50;;;6.40;;
78891;SDS011;68368;51.728;5.248;2023-06-01T08:29:25;9.90;;;6.40;;
78891;SDS011;68368;51.728;5.248;2023-06-01T08:31:28;9.60;;;6.00;;
78891;SDS011;68368;51.728;5.248;2023-06-01T08:33:31;9.20;;;6.30;;
78891;SDS011;68368;51.728;5.248;2023-06-01T08:35:35;10.40;;;5.70;;
78891;SDS011;68368;51.728;5.248;2023-06-01T08:37:38;12.10;;;6.50;;
78891;SDS011;68368;51.728;5.248;2023-06-01T08:39:41;8.50;;;5.70;;
78891;SDS011;68368;51.728;5.248;2023-06-01T08:41:48;9.20;;;5.30;;
78891;SDS011;68368;51.728;5.248;2023-06-01T08:44:01;9.50;;;5.80;;
78891;SDS011;68368;51.728;5.248;2023-06-01T08:46:07;8.90;;;6.30;;
78891;SDS011;68368;51.728;5.248;2023-06-01T08:48:11;10.00;;;6.10;;
78891;SDS011;68368;51.728;5.248;2023-06-01T08:50:18;7.80;;;5.50;;
78891;SDS011;68368;51.728;5.248;2023-06-01T08:52:24;12.50;;;6.70;;
78891;SDS011;68368;51.728;5.248;2023-06-01T08:54:30;7.70;;;4.70;;
78891;SDS011;68368;51.728;5.248;2023-06-01T08:56:34;10.30;;;7.00;;
78891;SDS011;68368;51.728;5.248;2023-06-01T08:58:39;12.40;;;6.30;;
78891;SDS011;68368;51.728;5.248;2023-06-01T09:00:43;10.10;;;6.40;;
78891;SDS011;68368;51.728;5.248;2023-06-01T09:02:48;9.90;;;6.10;;
78891;SDS011;68368;51.728;5.248;2023-06-01T09:04:53;11.70;;;7.10;;
78891;SDS011;68368;51.728;5.248;2023-06-01T09:06:59;11.80;;;7.20;;
78891;SDS011;68368;51.728;5.248;2023-06-01T09:09:03;9.90;;;6.30;;
78891;SDS011;68368;51.728;5.248;2023-06-01T09:11:07;12.30;;;7.50;;
78891;SDS011;68368;51.728;5.248;2023-06-01T09:13:12;10.30;;;6.00;;
78891;SDS011;68368;51.728;5.248;2023-06-01T09:15:31;9.20;;;6.10;;
78891;SDS011;68368;51.728;5.248;2023-06-01T09:17:34;9.40;;;6.00;;
78891;SDS011;68368;51.728;5.248;2023-06-01T09:19:44;10.10;;;6.60;;
78891;SDS011;68368;51.728;5.248;2023-06-01T09:21:56;12.10;;;7.20;;
78891;SDS011;68368;51.728;5.248;2023-06-01T09:24:04;9.90;;;6.80;;
78891;SDS011;68368;51.728;5.248;2023-06-01T09:26:25;8.00;;;5.10;;
78891;SDS011;68368;51.728;5.248;2023-06-01T09:28:28;10.50;;;6.60;;
78891;SDS011;68368;51.728;5.248;2023-06-01T09:30:43;9.80;;;7.30;;
78891;SDS011;68368;51.728;5.248;2023-06-01T09:32:49;11.00;;;7.30;;
78891;SDS011;68368;51.728;5.248;2023-06-01T09:35:08;9.70;;;6.60;;
78891;SDS011;68368;51.728;5.248;2023-06-01T09:37:12;11.00;;;6.80;;
78891;SDS011;68368;51.728;5.248;2023-06-01T09:39:16;11.50;;;7.00;;
78891;SDS011;68368;51.728;5.248;2023-06-01T09:41:21;9.70;;;6.10;;
78891;SDS011;68368;51.728;5.248;2023-06-01T09:43:25;9.80;;;6.40;;
78891;SDS011;68368;51.728;5.248;2023-06-01T09:45:38;9.20;;;6.60;;
78891;SDS011;68368;51.728;5.248;2023-06-01T09:47:42;8.70;;;6.20;;
78891;SDS011;68368;51.728;5.248;2023-06-01T09:49:45;6.90;;;4.40;;
78891;SDS011;68368;51.728;5.248;2023-06-01T09:52:08;11.20;;;6.50;;
78891;SDS011;68368;51.728;5.248;2023-06-01T09:54:28;7.90;;;5.00;;
78891;SDS011;68368;51.728;5.248;2023-06-01T09:56:44;7.20;;;4.50;;
78891;SDS011;68368;51.728;5.248;2023-06-01T09:58:48;10.90;;;6.90;;
78891;SDS011;68368;51.728;5.248;2023-06-01T10:01:00;9.80;;;6.80;;
78891;SDS011;68368;51.728;5.248;2023-06-01T10:03:04;10.10;;;6.40;;
78891;SDS011;68368;51.728;5.248;2023-06-01T10:05:09;11.70;;;7.00;;
78891;SDS011;68368;51.728;5.248;2023-06-01T10:07:15;8.50;;;5.10;;
78891;SDS011;68368;51.728;5.248;2023-06-01T10:09:20;10.10;;;6.10;;
78891;SDS011;68368;51.728;5.248;2023-06-01T10:11:25;10.80;;;6.90;;
78891;SDS011;68368;51.728;5.248;2023-06-01T10:13:30;10.20;;;6.20;;
78891;SDS011;68368;51.728;5.248;2023-06-01T10:15:33;13.50;;;7.50;;
78891;SDS011;68368;51.728;5.248;2023-06-01T10:17:37;12.50;;;6.70;;
78891;SDS011;68368;51.728;5.248;2023-06-01T10:19:44;10.30;;;6.60;;
78891;SDS011;68368;51.728;5.248;2023-06-01T10:21:48;9.90;;;6.30;;
78891;SDS011;68368;51.728;5.248;2023-06-01T10:23:52;9.90;;;6.30;;
78891;SDS011;68368;51.728;5.248;2023-06-01T10:25:56;7.70;;;6.20;;
78891;SDS011;68368;51.728;5.248;2023-06-01T10:28:11;9.20;;;6.70;;
78891;SDS011;68368;51.728;5.248;2023-06-01T10:30:15;11.70;;;7.30;;
78891;SDS011;68368;51.728;5.248;2023-06-01T10:34:44;7.70;;;4.90;;
78891;SDS011;68368;51.728;5.248;2023-06-01T10:41:28;11.60;;;6.60;;
78891;SDS011;68368;51.728;5.248;2023-06-01T10:43:41;10.80;;;5.80;;
78891;SDS011;68368;51.728;5.248;2023-06-01T10:47:47;10.90;;;6.50;;
78891;SDS011;68368;51.728;5.248;2023-06-01T10:50:09;7.90;;;6.30;;
78891;SDS011;68368;51.728;5.248;2023-06-01T10:52:25;10.30;;;5.80;;
78891;SDS011;68368;51.728;5.248;2023-06-01T10:54:30;10.30;;;5.30;;
78891;SDS011;68368;51.728;5.248;2023-06-01T10:56:34;9.40;;;5.20;;
78891;SDS011;68368;51.728;5.248;2023-06-01T10:58:40;8.80;;;5.50;;
78891;SDS011;68368;51.728;5.248;2023-06-01T11:00:43;6.70;;;4.30;;
78891;SDS011;68368;51.728;5.248;2023-06-01T11:02:49;8.00;;;4.90;;
78891;SDS011;68368;51.728;5.248;2023-06-01T11:04:54;8.20;;;4.40;;
78891;SDS011;68368;51.728;5.248;2023-06-01T11:06:57;8.20;;;5.10;;
78891;SDS011;68368;51.728;5.248;2023-06-01T11:09:43;7.70;;;5.00;;
78891;SDS011;68368;51.728;5.248;2023-06-01T11:12:03;7.10;;;4.60;;
78891;SDS011;68368;51.728;5.248;2023-06-01T11:14:09;8.70;;;5.10;;
78891;SDS011;68368;51.728;5.248;2023-06-01T11:16:32;7.40;;;3.80;;
78891;SDS011;68368;51.728;5.248;2023-06-01T11:18:42;6.60;;;4.40;;
78891;SDS011;68368;51.728;5.248;2023-06-01T11:20:49;8.30;;;4.50;;
78891;SDS011;68368;51.728;5.248;2023-06-01T11:22:53;7.80;;;4.20;;
78891;SDS011;68368;51.728;5.248;2023-06-01T11:24:58;10.10;;;5.90;;
78891;SDS011;68368;51.728;5.248;2023-06-01T11:27:06;8.40;;;5.30;;
78891;SDS011;68368;51.728;5.248;2023-06-01T11:29:15;10.70;;;4.40;;
78891;SDS011;68368;51.728;5.248;2023-06-01T11:31:20;8.70;;;4.40;;
78891;SDS011;68368;51.728;5.248;2023-06-01T11:33:24;6.60;;;4.40;;
78891;SDS011;68368;51.728;5.248;2023-06-01T11:35:29;8.20;;;5.30;;
78891;SDS011;68368;51.728;5.248;2023-06-01T11:37:34;7.20;;;4.30;;
78891;SDS011;68368;51.728;5.248;2023-06-01T11:39:39;8.50;;;4.80;;
78891;SDS011;68368;51.728;5.248;2023-06-01T11:41:43;8.40;;;5.50;;
78891;SDS011;68368;51.728;5.248;2023-06-01T11:43:52;6.70;;;3.10;;
78891;SDS011;68368;51.728;5.248;2023-06-01T11:46:03;10.20;;;4.70;;
78891;SDS011;68368;51.728;5.248;2023-06-01T11:48:11;10.00;;;4.90;;
78891;SDS011;68368;51.728;5.248;2023-06-01T11:50:23;7.40;;;4.10;;
78891;SDS011;68368;51.728;5.248;2023-06-01T11:54:30;8.40;;;4.90;;
78891;SDS011;68368;51.728;5.248;2023-06-01T11:56:34;7.50;;;4.80;;
78891;SDS011;68368;51.728;5.248;2023-06-01T11:58:37;9.00;;;4.50;;
78891;SDS011;68368;51.728;5.248;2023-06-01T12:00:41;7.80;;;4.90;;
78891;SDS011;68368;51.728;5.248;2023-06-01T12:02:44;7.30;;;4.20;;
78891;SDS011;68368;51.728;5.248;2023-06-01T12:04:55;6.60;;;3.80;;
78891;SDS011;68368;51.728;5.248;2023-06-01T12:07:06;8.50;;;4.50;;
78891;SDS011;68368;51.728;5.248;2023-06-01T12:09:09;5.30;;;3.50;;
78891;SDS011;68368;51.728;5.248;2023-06-01T12:11:13;6.90;;;3.10;;
78891;SDS011;68368;51.728;5.248;2023-06-01T12:13:18;9.30;;;4.10;;
78891;SDS011;68368;51.728;5.248;2023-06-01T12:15:22;7.80;;;4.80;;
78891;SDS011;68368;51.728;5.248;2023-06-01T12:17:29;7.00;;;4.40;;
78891;SDS011;68368;51.728;5.248;2023-06-01T12:19:49;7.00;;;3.70;;
78891;SDS011;68368;51.728;5.248;2023-06-01T12:21:53;9.30;;;4.20;;
78891;SDS011;68368;51.728;5.248;2023-06-01T12:23:59;8.20;;;3.60;;
78891;SDS011;68368;51.728;5.248;2023-06-01T12:26:02;7.60;;;3.70;;
78891;SDS011;68368;51.728;5.248;2023-06-01T12:28:06;6.30;;;3.90;;
78891;SDS011;68368;51.728;5.248;2023-06-01T12:30:21;7.50;;;3.90;;
78891;SDS011;68368;51.728;5.248;2023-06-01T12:32:24;6.80;;;3.90;;
78891;SDS011;68368;51.728;5.248;2023-06-01T12:34:40;6.90;;;4.30;;
78891;SDS011;68368;51.728;5.248;2023-06-01T12:36:44;7.90;;;4.30;;
78891;SDS011;68368;51.728;5.248;2023-06-01T12:38:50;5.90;;;3.80;;
78891;SDS011;68368;51.728;5.248;2023-06-01T12:41:06;8.70;;;4.10;;
78891;SDS011;68368;51.728;5.248;2023-06-01T12:43:18;5.20;;;3.30;;
78891;SDS011;68368;51.728;5.248;2023-06-01T12:45:21;7.30;;;4.20;;
78891;SDS011;68368;51.728;5.248;2023-06-01T12:47:36;6.50;;;3.70;;
78891;SDS011;68368;51.728;5.248;2023-06-01T12:49:40;4.90;;;2.60;;
78891;SDS011;68368;51.728;5.248;2023-06-01T12:52:08;6.00;;;3.40;;
78891;SDS011;68368;51.728;5.248;2023-06-01T12:54:11;6.40;;;3.60;;